createdAt,value
2018-02-25T00:01:38.665Z,11.80
2018-02-25T00:04:06.948Z,11.23
2018-02-25T00:06:57.221Z,11.90
2018-02-25T00:09:27.748Z,11.77
2018-02-25T00:12:05.456Z,14.70
2018-02-25T00:14:34.470Z,12.20
2018-02-25T00:17:09.223Z,12.53
2018-02-25T00:19:41.194Z,11.20
2018-02-25T00:22:12.331Z,11.07
2018-02-25T00:24:43.972Z,11.77
2018-02-25T00:27:12.253Z,11.57
2018-02-25T00:29:41.921Z,12.07
2018-02-25T00:32:16.540Z,11.60
2018-02-25T00:34:44.852Z,11.80
2018-02-25T00:37:35.050Z,11.87
2018-02-25T00:40:07.531Z,12.40
2018-02-25T00:42:39.915Z,13.67
2018-02-25T00:45:08.187Z,12.23
2018-02-25T00:47:36.475Z,11.00
2018-02-25T00:50:07.374Z,12.57
2018-02-25T00:52:43.390Z,12.77
2018-02-25T00:55:21.253Z,13.50
2018-02-25T00:57:53.261Z,11.77
2018-02-25T01:00:24.747Z,12.10
2018-02-25T01:02:53.031Z,11.67
2018-02-25T01:05:24.401Z,12.23
2018-02-25T01:07:52.682Z,12.40
2018-02-25T01:10:20.961Z,12.77
2018-02-25T01:12:52.289Z,12.77
2018-02-25T01:15:22.097Z,11.13
2018-02-25T01:17:51.758Z,12.33
2018-02-25T01:20:20.044Z,12.67
2018-02-25T01:22:50.759Z,12.00
2018-02-25T01:25:25.412Z,13.17
2018-02-25T01:28:00.734Z,12.17
2018-02-25T01:30:35.166Z,12.00
2018-02-25T01:33:05.260Z,13.97
2018-02-25T01:35:33.529Z,11.67
2018-02-25T01:38:02.722Z,11.87
2018-02-25T01:40:31.790Z,11.33
2018-02-25T01:43:06.100Z,11.73
2018-02-25T01:45:41.618Z,12.20
2018-02-25T01:48:15.531Z,10.43
2018-02-25T01:51:05.577Z,12.10
2018-02-25T01:53:35.385Z,10.53
2018-02-25T01:56:03.657Z,11.17
2018-02-25T01:58:32.094Z,10.83
2018-02-25T02:01:04.159Z,10.70
2018-02-25T02:03:34.139Z,10.80
2018-02-25T02:06:02.437Z,10.53
2018-02-25T02:08:31.676Z,10.13
2018-02-25T02:11:00.536Z,11.27
2018-02-25T02:13:36.345Z,10.20
2018-02-25T02:16:10.927Z,10.40
2018-02-25T02:18:43.643Z,9.53
2018-02-25T02:21:19.183Z,10.47
2018-02-25T02:23:53.634Z,10.77
2018-02-25T02:26:27.181Z,10.00
2018-02-25T02:28:56.603Z,10.20
2018-02-25T02:31:24.834Z,9.43
2018-02-25T02:33:54.014Z,9.33
2018-02-25T02:36:22.617Z,9.63
2018-02-25T02:38:52.199Z,9.73
2018-02-25T02:41:20.816Z,10.10
2018-02-25T02:43:53.993Z,9.80
2018-02-25T02:46:22.420Z,9.07
2018-02-25T02:48:50.696Z,9.17
2018-02-25T02:51:19.964Z,9.00
2018-02-25T02:53:48.297Z,9.50
2018-02-25T02:56:16.576Z,9.57
2018-02-25T02:58:50.501Z,8.97
2018-02-25T03:01:25.581Z,9.47
2018-02-25T03:03:54.587Z,9.77
2018-02-25T03:06:25.490Z,8.70
2018-02-25T03:08:56.651Z,8.60
2018-02-25T03:11:25.110Z,8.90
2018-02-25T03:13:56.024Z,9.03
2018-02-25T03:16:24.294Z,9.20
2018-02-25T03:18:58.824Z,8.80
2018-02-25T03:21:27.119Z,9.20
2018-02-25T03:23:55.635Z,8.03
2018-02-25T03:26:23.941Z,9.03
2018-02-25T03:28:54.764Z,8.93
2018-02-25T03:31:23.041Z,9.80
2018-02-25T03:33:55.381Z,8.70
2018-02-25T03:36:26.940Z,8.87
2018-02-25T03:39:16.572Z,9.03
2018-02-25T03:41:44.846Z,8.47
2018-02-25T03:44:13.676Z,9.10
2018-02-25T03:46:41.950Z,8.33
2018-02-25T03:49:19.826Z,8.73
2018-02-25T03:51:50.743Z,8.10
2018-02-25T03:54:19.032Z,8.53
2018-02-25T03:56:48.575Z,7.93
2018-02-25T03:59:16.851Z,8.43
2018-02-25T04:01:45.464Z,8.47
2018-02-25T04:04:19.842Z,8.43
2018-02-25T04:06:55.128Z,7.90
2018-02-25T04:09:24.003Z,7.83
2018-02-25T04:11:52.811Z,8.60
2018-02-25T04:14:21.619Z,8.07
2018-02-25T04:16:50.258Z,7.80
2018-02-25T04:19:18.717Z,7.40
2018-02-25T04:21:47.126Z,8.33
2018-02-25T04:24:20.858Z,8.17
2018-02-25T04:26:49.145Z,7.77
2018-02-25T04:29:20.424Z,7.70
2018-02-25T04:31:51.497Z,7.47
2018-02-25T04:34:21.467Z,8.20
2018-02-25T04:36:50.005Z,7.90
2018-02-25T04:39:20.372Z,7.50
2018-02-25T04:41:49.692Z,8.43
2018-02-25T04:44:19.794Z,7.30
2018-02-25T04:46:57.977Z,8.00
2018-02-25T04:49:32.057Z,7.67
2018-02-25T04:52:02.307Z,7.23
2018-02-25T04:55:11.385Z,7.47
2018-02-25T04:57:40.284Z,7.37
2018-02-25T05:00:10.083Z,7.87
2018-02-25T05:02:41.536Z,7.20
2018-02-25T05:05:10.087Z,7.90
2018-02-25T05:07:42.002Z,7.40
2018-02-25T05:10:17.580Z,7.20
2018-02-25T05:12:45.853Z,7.23
2018-02-25T05:15:14.924Z,6.63
2018-02-25T05:17:44.082Z,6.77
2018-02-25T05:20:12.344Z,7.87
2018-02-25T05:22:40.627Z,6.93
2018-02-25T05:25:10.602Z,6.83
2018-02-25T05:27:43.660Z,7.27
2018-02-25T05:30:14.458Z,6.90
2018-02-25T05:32:43.535Z,7.17
2018-02-25T05:35:13.145Z,6.63
2018-02-25T05:37:42.970Z,6.20
2018-02-25T05:40:12.402Z,7.17
2018-02-25T05:42:46.096Z,6.83
2018-02-25T05:45:27.404Z,6.63
2018-02-25T05:48:02.290Z,6.37
2018-02-25T05:50:32.672Z,6.40
2018-02-25T05:53:01.226Z,6.47
2018-02-25T05:55:29.489Z,6.83
2018-02-25T05:58:01.735Z,6.23
2018-02-25T06:00:30.524Z,6.27
2018-02-25T06:02:58.800Z,6.33
2018-02-25T06:05:27.068Z,5.93
2018-02-25T06:07:56.244Z,6.47
2018-02-25T06:10:25.911Z,6.73
2018-02-25T06:12:54.579Z,6.47
2018-02-25T06:15:22.854Z,6.40
2018-02-25T06:17:51.469Z,6.90
2018-02-25T06:20:20.839Z,6.27
2018-02-25T06:22:53.408Z,6.73
2018-02-25T06:25:27.087Z,6.53
2018-02-25T06:28:01.594Z,7.97
2018-02-25T06:30:31.759Z,5.90
2018-02-25T06:33:00.851Z,6.13
2018-02-25T06:35:31.562Z,7.90
2018-02-25T06:38:00.374Z,6.70
2018-02-25T06:40:34.628Z,6.20
2018-02-25T06:43:02.902Z,6.30
2018-02-25T06:45:31.865Z,6.23
2018-02-25T06:48:00.155Z,6.10
2018-02-25T06:50:29.039Z,6.80
2018-02-25T06:53:00.983Z,6.37
2018-02-25T06:55:34.795Z,6.77
2018-02-25T06:58:03.071Z,6.83
2018-02-25T07:00:34.726Z,6.43
2018-02-25T07:03:03.007Z,6.60
2018-02-25T07:05:32.493Z,6.23
2018-02-25T07:08:04.280Z,7.07
2018-02-25T07:10:59.766Z,6.47
2018-02-25T07:13:28.064Z,9.07
2018-02-25T07:15:57.406Z,8.17
2018-02-25T07:18:26.240Z,8.50
2018-02-25T07:20:57.815Z,7.60
2018-02-25T07:23:34.979Z,8.70
2018-02-25T07:26:04.647Z,8.80
2018-02-25T07:28:33.319Z,9.53
2018-02-25T07:31:01.605Z,8.13
2018-02-25T07:33:30.516Z,7.30
2018-02-25T07:36:07.365Z,7.43
2018-02-25T07:38:40.484Z,7.30
2018-02-25T07:41:12.282Z,6.97
2018-02-25T07:43:46.691Z,6.90
2018-02-25T07:46:23.457Z,6.73
2018-02-25T07:48:52.462Z,7.93
2018-02-25T07:51:22.881Z,7.00
2018-02-25T07:53:52.442Z,7.10
2018-02-25T07:56:20.784Z,7.17
2018-02-25T07:58:55.515Z,6.53
2018-02-25T08:01:25.239Z,6.27
2018-02-25T08:04:00.505Z,7.17
2018-02-25T08:06:32.791Z,7.57
2018-02-25T08:09:07.460Z,7.20
2018-02-25T08:11:40.942Z,7.07
2018-02-25T08:14:16.883Z,6.70
2018-02-25T08:16:48.351Z,6.57
2018-02-25T08:19:23.354Z,7.20
2018-02-25T08:21:56.035Z,7.00
2018-02-25T08:24:25.208Z,7.10
2018-02-25T08:27:30.363Z,6.60
2018-02-25T08:29:59.718Z,7.43
2018-02-25T08:32:33.419Z,6.20
2018-02-25T08:35:05.616Z,6.37
2018-02-25T08:37:36.135Z,7.47
2018-02-25T08:40:04.411Z,6.37
2018-02-25T08:42:34.333Z,6.23
2018-02-25T08:45:06.926Z,6.50
2018-02-25T08:47:36.771Z,6.50
2018-02-25T08:50:05.051Z,6.80
2018-02-25T08:52:35.016Z,6.37
2018-02-25T08:55:09.207Z,6.87
2018-02-25T08:57:46.375Z,6.77
2018-02-25T09:00:18.860Z,6.93
2018-02-25T09:02:51.306Z,6.90
2018-02-25T09:05:21.836Z,6.70
2018-02-25T09:07:54.669Z,6.97
2018-02-25T09:10:24.280Z,6.17
2018-02-25T09:12:53.469Z,6.30
2018-02-25T09:15:21.806Z,6.40
2018-02-25T09:17:54.738Z,6.27
2018-02-25T09:20:30.122Z,7.17
2018-02-25T09:23:03.167Z,6.70
2018-02-25T09:25:38.219Z,6.33
2018-02-25T09:28:28.362Z,5.90
2018-02-25T09:30:57.182Z,6.50
2018-02-25T09:33:27.243Z,6.10
2018-02-25T09:35:56.154Z,6.37
2018-02-25T09:38:25.178Z,6.90
2018-02-25T09:40:53.463Z,6.73
2018-02-25T09:43:23.387Z,6.60
2018-02-25T09:45:52.917Z,6.40
2018-02-25T09:48:26.597Z,6.30
2018-02-25T09:51:01.578Z,7.97
2018-02-25T09:53:35.194Z,6.27
2018-02-25T09:56:11.009Z,6.37
2018-02-25T09:58:42.682Z,6.30
2018-02-25T10:01:11.431Z,5.80
2018-02-25T10:03:42.068Z,6.20
2018-02-25T10:06:10.493Z,6.30
2018-02-25T10:08:40.874Z,5.27
2018-02-25T10:11:15.055Z,6.10
2018-02-25T10:14:20.941Z,6.07
2018-02-25T10:16:50.420Z,6.03
2018-02-25T10:19:18.695Z,6.13
2018-02-25T10:21:46.965Z,5.80
2018-02-25T10:24:17.008Z,6.57
2018-02-25T10:26:45.793Z,6.03
2018-02-25T10:29:14.105Z,6.33
2018-02-25T10:31:43.714Z,6.07
2018-02-25T10:34:12.271Z,5.97
2018-02-25T10:36:40.570Z,5.87
2018-02-25T10:39:09.330Z,6.00
2018-02-25T10:41:41.691Z,6.60
2018-02-25T10:44:15.081Z,5.73
2018-02-25T10:46:44.792Z,5.67
2018-02-25T10:49:22.091Z,5.43
2018-02-25T10:51:50.360Z,6.20
2018-02-25T10:54:19.640Z,6.20
2018-02-25T10:56:47.908Z,6.13
2018-02-25T10:59:21.698Z,6.50
2018-02-25T11:01:57.412Z,6.37
2018-02-25T11:04:29.227Z,5.80
2018-02-25T11:06:57.932Z,5.70
2018-02-25T11:09:27.685Z,6.50
2018-02-25T11:11:55.958Z,5.93
2018-02-25T11:14:24.282Z,6.23
2018-02-25T11:16:59.439Z,5.87
2018-02-25T11:19:33.499Z,5.60
2018-02-25T11:22:12.799Z,5.50
2018-02-25T11:24:42.402Z,5.80
2018-02-25T11:27:11.961Z,6.17
2018-02-25T11:29:40.658Z,5.47
2018-02-25T11:32:23.026Z,6.20
2018-02-25T11:34:52.075Z,6.80
2018-02-25T11:37:21.675Z,6.37
2018-02-25T11:39:50.533Z,5.73
2018-02-25T11:42:18.808Z,6.13
2018-02-25T11:44:55.995Z,6.43
2018-02-25T11:47:28.171Z,5.87
2018-02-25T11:50:02.569Z,6.40
2018-02-25T11:52:31.710Z,5.90
2018-02-25T11:55:01.317Z,5.10
2018-02-25T11:57:29.593Z,6.30
2018-02-25T12:00:20.025Z,6.10
2018-02-25T12:02:49.605Z,5.97
2018-02-25T12:05:18.744Z,6.13
2018-02-25T12:07:49.542Z,5.97
2018-02-25T12:10:21.602Z,6.87
2018-02-25T12:12:51.580Z,5.63
2018-02-25T12:18:48.501Z,5.40
2018-02-25T12:21:18.807Z,6.30
2018-02-25T12:23:47.468Z,6.37
2018-02-25T12:26:20.841Z,5.77
2018-02-25T12:28:55.462Z,5.40
2018-02-25T12:31:27.388Z,5.80
2018-02-25T12:33:56.515Z,6.70
2018-02-25T12:36:28.184Z,5.67
2018-02-25T12:38:57.226Z,5.70
2018-02-25T12:41:25.499Z,6.60
2018-02-25T12:43:55.242Z,5.40
2018-02-25T12:46:54.112Z,5.50
2018-02-25T12:49:29.278Z,4.73
2018-02-25T12:51:58.696Z,5.73
2018-02-25T12:54:27.012Z,5.80
2018-02-25T12:56:55.763Z,5.47
2018-02-25T12:59:24.034Z,5.80
2018-02-25T13:01:52.711Z,5.77
2018-02-25T13:04:28.655Z,5.43
2018-02-25T13:07:04.873Z,5.30
2018-02-25T13:09:36.979Z,5.00
2018-02-25T13:12:09.196Z,5.00
2018-02-25T13:14:44.918Z,4.63
2018-02-25T13:17:13.860Z,4.80
2018-02-25T13:19:42.115Z,4.60
2018-02-25T13:22:11.468Z,4.87
2018-02-25T13:24:47.728Z,4.93
2018-02-25T13:27:23.946Z,4.10
2018-02-25T13:29:52.713Z,5.27
2018-02-25T13:32:24.663Z,5.00
2018-02-25T13:34:53.686Z,4.93
2018-02-25T13:37:22.726Z,4.70
2018-02-25T13:39:55.550Z,4.40
2018-02-25T13:42:31.301Z,4.20
2018-02-25T13:45:03.663Z,4.07
2018-02-25T13:47:54.090Z,4.57
2018-02-25T13:50:22.377Z,4.27
2018-02-25T13:52:54.838Z,4.57
2018-02-25T13:55:26.197Z,3.70
2018-02-25T13:58:03.196Z,4.03
2018-02-25T14:00:38.145Z,4.20
2018-02-25T14:03:06.617Z,4.37
2018-02-25T14:05:34.913Z,4.07
2018-02-25T14:08:06.704Z,4.47
2018-02-25T14:10:34.983Z,3.83
2018-02-25T14:13:05.252Z,3.83
2018-02-25T14:15:33.521Z,4.07
2018-02-25T14:18:02.143Z,3.80
2018-02-25T14:20:30.403Z,4.00
2018-02-25T14:22:58.675Z,4.63
2018-02-25T14:25:28.306Z,4.07
2018-02-25T14:27:59.597Z,3.80
2018-02-25T14:30:28.406Z,4.53
2018-02-25T14:33:02.599Z,4.00
2018-02-25T14:35:34.212Z,4.37
2018-02-25T14:38:04.475Z,3.60
2018-02-25T14:40:33.184Z,4.17
2018-02-25T14:43:05.350Z,3.73
2018-02-25T14:45:33.901Z,3.80
2018-02-25T14:48:23.358Z,3.70
2018-02-25T14:51:02.045Z,3.60
2018-02-25T14:53:35.895Z,4.23
2018-02-25T14:56:10.406Z,4.20
2018-02-25T14:58:38.685Z,3.87
2018-02-25T15:01:06.942Z,4.00
2018-02-25T15:03:35.752Z,3.63
2018-02-25T15:06:04.032Z,4.60
2018-02-25T15:08:32.305Z,4.00
2018-02-25T15:11:01.347Z,3.50
2018-02-25T15:13:29.972Z,3.33
2018-02-25T15:16:00.178Z,3.73
2018-02-25T15:19:08.176Z,3.83
2018-02-25T15:21:38.190Z,4.00
2018-02-25T15:24:06.439Z,3.97
2018-02-25T15:26:35.369Z,3.87
2018-02-25T15:29:05.296Z,3.90
2018-02-25T15:31:33.735Z,4.30
2018-02-25T15:34:06.711Z,4.77
2018-02-25T15:36:40.394Z,3.93
2018-02-25T15:39:13.672Z,3.80
2018-02-25T15:41:41.952Z,4.07
2018-02-25T15:44:10.328Z,4.27
2018-02-25T15:46:38.587Z,4.43
2018-02-25T15:49:10.666Z,4.70
2018-02-25T15:51:40.302Z,4.50
2018-02-25T15:54:08.563Z,3.77
2018-02-25T15:56:36.820Z,4.07
2018-02-25T15:59:05.865Z,3.40
2018-02-25T16:01:37.907Z,4.33
2018-02-25T16:04:28.418Z,4.43
2018-02-25T16:06:56.887Z,4.23
2018-02-25T16:09:26.224Z,5.33
2018-02-25T16:12:02.048Z,5.17
2018-02-25T16:14:32.745Z,4.17
2018-02-25T16:17:01.163Z,4.37
2018-02-25T16:19:30.564Z,4.60
2018-02-25T16:22:00.007Z,4.73
2018-02-25T16:24:31.515Z,4.10
2018-02-25T16:27:07.796Z,4.30
2018-02-25T16:29:36.094Z,4.20
2018-02-25T16:32:04.548Z,4.50
2018-02-25T16:34:34.169Z,5.43
2018-02-25T16:37:03.373Z,4.93
2018-02-25T16:39:32.036Z,5.10
2018-02-25T16:42:01.741Z,4.73
2018-02-25T16:44:30.613Z,4.93
2018-02-25T16:47:05.921Z,5.13
2018-02-25T16:49:40.433Z,5.47
2018-02-25T16:52:13.553Z,5.30
2018-02-25T16:54:44.228Z,5.67
2018-02-25T16:57:23.371Z,5.60
2018-02-25T16:59:58.110Z,4.73
2018-02-25T17:02:27.547Z,5.50
2018-02-25T17:04:57.817Z,4.90
2018-02-25T17:07:26.487Z,5.33
2018-02-25T17:09:57.042Z,6.17
2018-02-25T17:12:28.648Z,6.33
2018-02-25T17:14:57.244Z,5.43
2018-02-25T17:17:25.511Z,5.30
2018-02-25T17:19:56.824Z,5.00
2018-02-25T17:22:26.587Z,5.10
2018-02-25T17:24:57.554Z,5.63
2018-02-25T17:27:26.008Z,5.67
2018-02-25T17:29:56.488Z,5.70
2018-02-25T17:32:26.625Z,5.37
2018-02-25T17:34:55.950Z,5.13
2018-02-25T17:37:24.226Z,5.73
2018-02-25T17:39:52.620Z,5.23
2018-02-25T17:42:23.160Z,5.30
2018-02-25T17:44:57.626Z,5.97
2018-02-25T17:47:32.988Z,5.60
2018-02-25T17:50:07.036Z,5.80
2018-02-25T17:52:40.071Z,5.40
2018-02-25T17:55:24.376Z,5.50
2018-02-25T17:57:49.747Z,5.23
2018-02-25T18:00:23.954Z,5.93
2018-02-25T18:02:52.251Z,5.00
2018-02-25T18:05:20.615Z,5.00
2018-02-25T18:07:49.125Z,4.90
2018-02-25T18:10:18.696Z,4.60
2018-02-25T18:12:47.886Z,5.63
2018-02-25T18:15:16.248Z,5.47
2018-02-25T18:17:45.926Z,5.07
2018-02-25T18:20:15.428Z,5.03
2018-02-25T18:22:43.888Z,5.13
2018-02-25T18:25:16.814Z,4.33
2018-02-25T18:27:45.889Z,5.00
2018-02-25T18:30:14.690Z,4.57
2018-02-25T18:32:44.175Z,4.43
2018-02-25T18:35:53.058Z,4.50
2018-02-25T18:38:22.028Z,4.33
2018-02-25T18:40:51.702Z,4.03
2018-02-25T18:43:24.047Z,4.37
2018-02-25T18:45:52.758Z,4.50
2018-02-25T18:48:22.789Z,4.57
2018-02-25T18:50:52.540Z,4.70
2018-02-25T18:53:20.821Z,4.00
2018-02-25T18:55:49.477Z,4.87
2018-02-25T18:58:21.106Z,4.40
2018-02-25T19:00:54.565Z,5.00
2018-02-25T19:03:23.904Z,6.23
2018-02-25T19:05:53.810Z,6.17
2018-02-25T19:08:22.076Z,4.50
2018-02-25T19:10:54.608Z,5.13
2018-02-25T19:13:26.178Z,6.07
2018-02-25T19:15:56.031Z,5.60
2018-02-25T19:18:25.394Z,5.60
2018-02-25T19:20:53.986Z,5.80
2018-02-25T19:23:22.803Z,6.00
2018-02-25T19:25:52.645Z,4.97
2018-02-25T19:28:21.249Z,7.13
2018-02-25T19:30:50.802Z,19.37
2018-02-25T19:33:22.916Z,8.37
2018-02-25T19:36:02.565Z,5.10
2018-02-25T19:38:37.112Z,8.27
2018-02-25T19:41:12.071Z,6.60
2018-02-25T19:43:46.829Z,4.87
2018-02-25T19:46:17.621Z,6.50
2018-02-25T19:48:52.271Z,5.80
2018-02-25T19:51:43.103Z,8.63
2018-02-25T19:54:11.759Z,5.97
2018-02-25T19:56:40.192Z,6.50
2018-02-25T19:59:09.572Z,7.07
2018-02-25T20:01:43.443Z,6.10
2018-02-25T20:04:14.491Z,5.57
2018-02-25T20:06:46.957Z,9.27
2018-02-25T20:09:20.405Z,8.27
2018-02-25T20:11:51.207Z,7.00
2018-02-25T20:14:20.697Z,5.97
2018-02-25T20:16:49.747Z,5.27
2018-02-25T20:19:18.505Z,5.33
2018-02-25T20:21:49.196Z,6.17
2018-02-25T20:24:20.138Z,5.47
2018-02-25T20:26:52.506Z,5.50
2018-02-25T20:29:21.628Z,5.43
2018-02-25T20:31:50.722Z,6.37
2018-02-25T20:34:19.012Z,8.43
2018-02-25T20:37:09.522Z,6.03
2018-02-25T20:39:37.833Z,5.63
2018-02-25T20:42:08.774Z,6.90
2018-02-25T20:44:41.487Z,5.93
2018-02-25T20:47:11.114Z,6.20
2018-02-25T20:49:40.343Z,9.70
2018-02-25T20:52:09.584Z,7.07
2018-02-25T20:54:37.872Z,6.33
2018-02-25T20:57:11.651Z,6.50
2018-02-25T20:59:40.718Z,5.90
2018-02-25T21:02:12.560Z,10.00
2018-02-25T21:04:42.356Z,6.57
2018-02-25T21:07:11.717Z,5.43
2018-02-25T21:09:40.146Z,5.47
2018-02-25T21:12:08.964Z,5.40
2018-02-25T21:14:37.486Z,6.17
2018-02-25T21:17:07.462Z,5.10
2018-02-25T21:19:41.767Z,5.50
2018-02-25T21:22:12.017Z,5.07
2018-02-25T21:24:48.237Z,6.20
2018-02-25T21:27:17.560Z,5.63
2018-02-25T21:29:46.726Z,5.40
2018-02-25T21:32:15.531Z,6.90
2018-02-25T21:34:45.184Z,7.80
2018-02-25T21:37:22.845Z,5.13
2018-02-25T21:39:57.785Z,5.50
2018-02-25T21:42:26.091Z,5.97
2018-02-25T21:44:55.343Z,5.17
2018-02-25T21:47:28.688Z,5.03
2018-02-25T21:49:56.969Z,5.57
2018-02-25T21:52:54.396Z,4.77
2018-02-25T21:55:28.718Z,5.50
2018-02-25T21:58:05.750Z,5.20
2018-02-25T22:00:48.787Z,5.43
2018-02-25T22:03:24.745Z,4.90
2018-02-25T22:05:53.037Z,5.40
2018-02-25T22:08:22.001Z,4.93
2018-02-25T22:10:53.578Z,5.67
2018-02-25T22:13:27.883Z,4.50
2018-02-25T22:15:56.180Z,4.70
2018-02-25T22:18:25.191Z,5.30
2018-02-25T22:20:54.299Z,5.30
2018-02-25T22:23:25.759Z,5.50
2018-02-25T22:25:59.048Z,5.20
2018-02-25T22:28:35.261Z,5.60
2018-02-25T22:31:04.654Z,6.47
2018-02-25T22:33:37.850Z,5.63
2018-02-25T22:36:14.541Z,6.23
2018-02-25T22:39:05.141Z,5.60
2018-02-25T22:41:34.375Z,5.73
2018-02-25T22:44:02.649Z,5.50
2018-02-25T22:46:34.948Z,5.37
2018-02-25T22:49:03.879Z,4.90
2018-02-25T22:51:32.276Z,5.40
2018-02-25T22:54:00.982Z,5.03
2018-02-25T22:56:29.267Z,6.00
2018-02-25T22:58:58.302Z,5.87
2018-02-25T23:01:27.286Z,5.00
2018-02-25T23:03:58.326Z,5.00
2018-02-25T23:06:32.131Z,5.13
2018-02-25T23:09:06.346Z,5.70
2018-02-25T23:11:41.110Z,5.43
2018-02-25T23:14:09.393Z,5.37
2018-02-25T23:16:37.690Z,5.90
2018-02-25T23:19:05.983Z,5.00
2018-02-25T23:21:36.116Z,6.10
2018-02-25T23:24:04.391Z,4.97
2018-02-25T23:26:37.508Z,5.43
2018-02-25T23:29:10.794Z,5.33
2018-02-25T23:31:40.388Z,6.07
2018-02-25T23:34:09.632Z,5.60
2018-02-25T23:36:38.908Z,5.57
2018-02-25T23:39:07.415Z,5.73
2018-02-25T23:41:49.475Z,5.37
2018-02-25T23:44:19.953Z,5.63
2018-02-25T23:46:48.986Z,5.17
2018-02-25T23:49:21.700Z,6.73
2018-02-25T23:51:51.319Z,5.43
2018-02-25T23:54:19.914Z,5.87
2018-02-25T23:56:49.230Z,5.63
2018-02-25T23:59:22.204Z,5.67
